Time;durP1;ratioP1;P1;durP2;ratioP2;P2;SDS_P1;SDS_P2;PMS_P1;PMS_P2;Temp;Humidity;BMP_temperature;BMP_pressure;BME280_temperature;BME280_humidity;BME280_pressure;Samples;Min_cycle;Max_cycle;Signal;HPM_P1;HPM_P2
2023/03/10 00:01:47;;;;;;;6.82;5.25;;;;;;;3.98;100.00;98712.03;4973097;28;20390;-70
2023/03/10 00:04:12;;;;;;;8.02;6.03;;;;;;;4.00;100.00;98722.44;4975168;28;20115;-70
2023/03/10 00:06:38;;;;;;;7.53;5.72;;;;;;;3.97;100.00;98714.69;4955070;28;20051;-70
2023/03/10 00:09:04;;;;;;;6.72;5.32;;;;;;;3.99;100.00;98720.75;4974406;28;20057;-71
2023/03/10 00:11:29;;;;;;;6.40;5.28;;;;;;;4.01;100.00;98724.19;4972061;28;20098;-70
2023/03/10 00:13:55;;;;;;;8.15;5.63;;;;;;;3.98;100.00;98719.91;4974581;28;20053;-71
2023/03/10 00:16:23;;;;;;;7.55;5.43;;;;;;;4.02;100.00;98729.34;4973495;28;20031;-71
2023/03/10 00:18:49;;;;;;;6.75;5.35;;;;;;;4.05;100.00;98728.41;5016183;28;20460;-71
2023/03/10 00:21:18;;;;;;;6.25;5.15;;;;;;;4.06;100.00;98732.75;4974310;28;20034;-70
2023/03/10 00:23:44;;;;;;;7.15;5.05;;;;;;;4.04;100.00;98727.56;4969531;28;20078;-71
2023/03/10 00:26:12;;;;;;;6.25;4.82;;;;;;;4.04;100.00;98729.31;4970614;28;20054;-71
2023/03/10 00:28:37;;;;;;;6.10;5.22;;;;;;;4.03;100.00;98733.72;4971285;28;20031;-71
2023/03/10 00:31:05;;;;;;;6.72;5.40;;;;;;;4.01;100.00;98717.19;4971012;28;20026;-70
2023/03/10 00:33:33;;;;;;;5.88;5.10;;;;;;;4.04;100.00;98724.94;4973985;28;20035;-70
2023/03/10 00:36:06;;;;;;;7.05;5.00;;;;;;;4.05;100.00;98716.16;4970943;28;20018;-70
2023/03/10 00:38:32;;;;;;;6.28;5.35;;;;;;;4.05;100.00;98718.78;5015039;28;20087;-70
2023/03/10 00:41:00;;;;;;;11.13;5.78;;;;;;;4.09;100.00;98714.34;4971516;28;20025;-70
2023/03/10 00:43:27;;;;;;;6.63;5.10;;;;;;;4.11;100.00;98704.69;4969260;28;20050;-70
2023/03/10 00:45:53;;;;;;;8.68;5.13;;;;;;;4.12;100.00;98718.63;4971143;28;20666;-70
2023/03/10 00:48:18;;;;;;;7.22;5.55;;;;;;;4.11;100.00;98724.78;4987168;28;20069;-70
2023/03/10 00:50:44;;;;;;;10.75;5.60;;;;;;;4.15;100.00;98729.00;4971622;28;20062;-70
2023/03/10 00:53:10;;;;;;;5.78;4.95;;;;;;;4.14;100.00;98727.31;4970778;28;20050;-70
2023/03/10 00:55:35;;;;;;;7.25;5.57;;;;;;;4.16;100.00;98722.88;4971591;28;20030;-70
2023/03/10 00:58:01;;;;;;;6.25;5.60;;;;;;;4.19;100.00;98728.03;4978896;28;20046;-70
2023/03/10 01:00:27;;;;;;;8.10;6.47;;;;;;;4.17;100.00;98733.28;4984934;28;20121;-70
2023/03/10 01:02:52;;;;;;;8.18;6.20;;;;;;;4.16;100.00;98720.25;4982294;28;20490;-70
2023/03/10 01:05:18;;;;;;;8.57;5.68;;;;;;;4.19;100.00;98730.63;4986489;28;20134;-70
2023/03/10 01:07:44;;;;;;;8.88;6.55;;;;;;;4.18;100.00;98721.94;4982135;28;20035;-70
2023/03/10 01:10:10;;;;;;;7.82;6.43;;;;;;;4.19;100.00;98728.03;4987583;28;20042;-69
2023/03/10 01:12:37;;;;;;;7.55;5.93;;;;;;;4.21;100.00;98720.97;4991769;28;20034;-70
2023/03/10 01:15:05;;;;;;;8.55;6.00;;;;;;;4.22;100.00;98720.06;4973863;28;20027;-70
2023/03/10 01:17:30;;;;;;;7.82;6.15;;;;;;;4.24;100.00;98711.25;4991414;28;20045;-69
2023/03/10 01:19:56;;;;;;;8.85;6.38;;;;;;;4.20;100.00;98714.84;4991156;28;20038;-70
2023/03/10 01:22:22;;;;;;;7.32;5.90;;;;;;;4.24;100.00;98708.63;4989719;28;20030;-70
2023/03/10 01:24:48;;;;;;;8.73;6.93;;;;;;;4.25;100.00;98699.88;4991196;28;20038;-70
2023/03/10 01:27:13;;;;;;;8.13;6.45;;;;;;;4.26;100.00;98701.59;4987119;28;20038;-70
2023/03/10 01:29:39;;;;;;;8.02;6.30;;;;;;;4.27;100.00;98689.34;4972778;28;20536;-70
2023/03/10 01:32:05;;;;;;;8.27;6.50;;;;;;;4.29;100.00;98700.63;4985646;28;20138;-70
2023/03/10 01:34:31;;;;;;;6.88;5.70;;;;;;;4.31;100.00;98691.81;4979658;28;20473;-70
2023/03/10 01:36:57;;;;;;;9.98;6.65;;;;;;;4.32;100.00;98692.66;4990235;28;20125;-70
2023/03/10 01:39:22;;;;;;;9.93;6.03;;;;;;;4.36;100.00;98694.31;4987270;28;20058;-70
2023/03/10 01:41:47;;;;;;;13.07;6.82;;;;;;;4.38;100.00;98686.41;4981740;28;20038;-70
2023/03/10 01:44:20;;;;;;;8.43;6.88;;;;;;;4.42;100.00;98693.25;4991216;28;20129;-70
2023/03/10 01:46:48;;;;;;;9.48;6.85;;;;;;;4.43;100.00;98687.97;4973537;28;20047;-70
2023/03/10 01:49:21;;;;;;;9.57;7.57;;;;;;;4.44;100.00;98684.44;4990144;28;20104;-70
2023/03/10 01:51:52;;;;;;;9.23;7.05;;;;;;;4.45;100.00;98680.91;4990767;28;20161;-70
2023/03/10 01:54:21;;;;;;;;;;;;;;;4.54;100.00;98674.50;4994134;28;20050;-70
2023/03/10 01:56:49;;;;;;;9.88;7.28;;;;;;;4.53;100.00;98671.03;4994179;28;19990;-70
2023/03/10 01:59:15;;;;;;;11.05;6.78;;;;;;;4.56;100.00;98666.63;4995336;28;20145;-70
2023/03/10 02:01:41;;;;;;;8.70;6.65;;;;;;;4.56;100.00;98659.59;4980014;28;20026;-70
2023/03/10 02:04:16;;;;;;;9.13;7.15;;;;;;;4.56;100.00;98650.88;4974311;28;20051;-69
2023/03/10 02:06:46;;;;;;;8.93;6.63;;;;;;;4.55;100.00;98671.00;4988006;28;20051;-70
2023/03/10 02:09:15;;;;;;;10.35;7.25;;;;;;;4.57;100.00;98668.31;4985478;28;20417;-70
2023/03/10 02:11:41;;;;;;;9.90;6.75;;;;;;;4.56;100.00;98675.31;4987427;28;20437;-70
2023/03/10 02:14:07;;;;;;;9.45;7.25;;;;;;;4.57;100.00;98669.16;4991167;28;20470;-69
2023/03/10 02:16:33;;;;;;;10.43;6.82;;;;;;;4.58;100.00;98663.03;4993008;28;20033;-69
2023/03/10 02:18:59;;;;;;;12.65;7.20;;;;;;;4.58;100.00;98663.03;4994566;28;20040;-69
2023/03/10 02:21:40;;;;;;;11.40;7.65;;;;;;;4.61;100.00;98665.53;4976869;28;20042;-69
2023/03/10 02:24:26;;;;;;;13.15;7.50;;;;;;;4.63;100.00;98662.88;4989306;28;20540;-69
2023/03/10 02:27:03;;;;;;;11.60;6.55;;;;;;;4.64;100.00;98656.72;4987775;28;20041;-69
2023/03/10 02:29:40;;;;;;;8.60;6.68;;;;;;;4.62;100.00;98648.03;4983095;28;20050;-69
2023/03/10 02:32:06;;;;;;;9.60;6.82;;;;;;;4.61;100.00;98641.97;4985755;28;20038;-70
2023/03/10 02:34:32;;;;;;;8.15;6.88;;;;;;;4.62;100.00;98643.66;4982519;28;20485;-69
2023/03/10 02:36:58;;;;;;;9.65;6.72;;;;;;;4.61;100.00;98641.09;4989164;28;20044;-69
2023/03/10 02:39:24;;;;;;;8.98;6.35;;;;;;;4.60;100.00;98640.25;4984728;28;20131;-69
2023/03/10 02:41:50;;;;;;;8.80;7.00;;;;;;;4.57;100.00;98636.84;4984509;28;20073;-69
2023/03/10 02:44:20;;;;;;;12.38;6.82;;;;;;;4.53;100.00;98626.47;4991212;28;20034;-70
2023/03/10 02:46:46;;;;;;;8.23;6.38;;;;;;;4.48;100.00;98625.78;4976973;28;20493;-70
2023/03/10 02:49:12;;;;;;;8.43;6.43;;;;;;;4.47;100.00;98616.19;4993260;28;20088;-70
2023/03/10 02:51:44;;;;;;;10.82;6.35;;;;;;;4.44;100.00;98618.06;4993061;28;20481;-70
2023/03/10 02:54:13;;;;;;;;;;;;;;;4.47;100.00;98616.19;5025841;28;20034;-70
2023/03/10 02:56:41;;;;;;;8.05;6.25;;;;;;;4.40;100.00;98606.84;5011769;28;19997;-69
2023/03/10 02:59:08;;;;;;;10.18;6.38;;;;;;;4.37;100.00;98616.53;4980693;28;20039;-70
2023/03/10 03:01:36;;;;;;;6.60;5.60;;;;;;;4.34;100.00;98616.66;4973220;28;20054;-69
2023/03/10 03:04:02;;;;;;;7.10;5.82;;;;;;;4.31;100.00;98621.06;4995289;28;20062;-70
2023/03/10 03:06:28;;;;;;;7.78;6.20;;;;;;;4.29;100.00;98614.16;4978919;28;20125;-70
2023/03/10 03:08:54;;;;;;;7.15;5.97;;;;;;;4.28;100.00;98605.47;4985509;28;20029;-70
2023/03/10 03:11:22;;;;;;;7.68;6.38;;;;;;;4.28;100.00;98607.22;4972775;28;20409;-69
2023/03/10 03:13:47;;;;;;;6.47;5.47;;;;;;;4.30;100.00;98602.78;4989741;28;20029;-70
2023/03/10 03:16:13;;;;;;;7.57;6.40;;;;;;;4.30;100.00;98597.53;4982319;28;20034;-70
2023/03/10 03:18:40;;;;;;;9.27;6.65;;;;;;;4.30;100.00;98594.91;4992534;28;20038;-69
2023/03/10 03:21:14;;;;;;;7.40;5.95;;;;;;;4.33;100.00;98592.22;4984576;28;20030;-70
2023/03/10 03:23:40;;;;;;;;;;;;;;;4.39;100.00;98599.88;4990233;28;20035;-70
2023/03/10 03:26:18;;;;;;;7.53;5.65;;;;;;;4.35;100.00;98598.25;4993715;28;20313;-70
2023/03/10 03:28:44;;;;;;;9.45;5.55;;;;;;;4.30;100.00;98592.28;5022650;28;20042;-70
2023/03/10 03:31:17;;;;;;;7.88;6.25;;;;;;;4.33;100.00;98605.31;4963476;28;20053;-69
2023/03/10 03:33:43;;;;;;;6.82;6.03;;;;;;;4.31;100.00;98596.66;4992390;28;20441;-69
2023/03/10 03:36:10;;;;;;;7.57;6.25;;;;;;;4.30;100.00;98598.41;4983934;28;20022;-69
2023/03/10 03:38:36;;;;;;;7.60;5.72;;;;;;;4.32;100.00;98593.94;5017189;28;20081;-69
2023/03/10 03:41:02;;;;;;;7.10;6.18;;;;;;;4.31;100.00;98597.50;4978321;28;20477;-69
2023/03/10 03:43:29;;;;;;;11.57;6.75;;;;;;;4.30;100.00;98593.16;4982645;28;20117;-69
2023/03/10 03:45:55;;;;;;;7.35;6.18;;;;;;;4.30;100.00;98594.91;5020783;28;20033;-69
2023/03/10 03:48:21;;;;;;;7.07;6.15;;;;;;;4.30;100.00;98592.28;4993465;28;20042;-69
2023/03/10 03:50:48;;;;;;;6.95;5.90;;;;;;;4.30;100.00;98593.16;4946050;28;20035;-69
2023/03/10 03:53:25;;;;;;;9.77;6.03;;;;;;;4.30;100.00;98590.56;4991794;28;20161;-69
2023/03/10 03:55:51;;;;;;;6.88;5.32;;;;;;;4.34;100.00;98596.53;4969010;28;20125;-69
2023/03/10 03:58:21;;;;;;;8.60;5.63;;;;;;;4.35;100.00;98592.16;4974245;28;20051;-69
2023/03/10 04:00:49;;;;;;;7.53;5.85;;;;;;;4.34;100.00;98585.22;4991547;28;20392;-69
2023/03/10 04:03:15;;;;;;;8.18;5.90;;;;;;;4.33;100.00;98584.34;4985439;28;20022;-70
2023/03/10 04:05:41;;;;;;;7.57;5.90;;;;;;;4.33;100.00;98579.13;5004454;28;20399;-70
2023/03/10 04:08:07;;;;;;;7.95;5.95;;;;;;;4.36;100.00;98583.41;4972007;28;20051;-69
2023/03/10 04:10:32;;;;;;;9.07;6.63;;;;;;;4.37;100.00;98577.22;4981602;28;20088;-69
2023/03/10 04:12:59;;;;;;;8.52;6.00;;;;;;;4.40;100.00;98583.25;4975781;28;20030;-70
2023/03/10 04:15:25;;;;;;;8.82;5.72;;;;;;;4.40;100.00;98577.13;5003471;28;20042;-70
2023/03/10 04:17:51;;;;;;;10.05;6.28;;;;;;;4.45;100.00;98577.81;4985748;28;20497;-68
2023/03/10 04:20:17;;;;;;;8.13;5.65;;;;;;;4.46;100.00;98567.31;4968641;28;20026;-68
2023/03/10 04:22:46;;;;;;;9.85;5.30;;;;;;;4.58;100.00;98578.31;4999372;28;20041;-68
2023/03/10 04:25:12;;;;;;;9.27;5.38;;;;;;;4.64;100.00;98568.44;4969425;28;20035;-68
2023/03/10 04:27:38;;;;;;;6.70;4.45;;;;;;;4.79;100.00;98571.44;4973710;28;20049;-68
2023/03/10 04:30:05;;;;;;;14.43;4.82;;;;;;;4.92;100.00;98557.00;4984794;28;20049;-68
2023/03/10 04:32:34;;;;;;;10.27;3.88;;;;;;;5.05;100.00;98567.94;4953337;28;20403;-68
2023/03/10 04:35:02;;;;;;;8.43;4.07;;;;;;;5.22;100.00;98568.16;4966816;28;20223;-68
2023/03/10 04:37:28;;;;;;;12.23;4.10;;;;;;;5.38;100.00;98564.06;4985612;28;20042;-68
2023/03/10 04:39:56;;;;;;;7.43;4.00;;;;;;;5.61;100.00;98564.94;4969888;28;20121;-68
2023/03/10 04:42:22;;;;;;;11.85;4.32;;;;;;;5.78;100.00;98559.91;4969109;28;20049;-68
2023/03/10 04:44:50;;;;;;;9.15;4.13;;;;;;;5.89;100.00;98556.88;4983932;28;20105;-68
2023/03/10 04:47:16;;;;;;;14.75;3.85;;;;;;;5.94;100.00;98547.06;4968405;28;20501;-68
2023/03/10 04:49:42;;;;;;;16.52;4.97;;;;;;;6.13;100.00;98556.84;4969871;28;20220;-68
2023/03/10 04:52:10;;;;;;;10.80;3.42;;;;;;;6.24;100.00;98552.00;4968786;28;20034;-68
2023/03/10 04:54:36;;;;;;;12.27;3.60;;;;;;;6.29;100.00;98552.69;4972883;28;20058;-68
2023/03/10 04:57:02;;;;;;;16.48;3.90;;;;;;;6.38;100.00;98551.44;4966974;28;20118;-68
2023/03/10 04:59:28;;;;;;;11.48;3.28;;;;;;;6.42;100.00;98548.63;4982257;28;20042;-68
2023/03/10 05:01:53;;;;;;;14.43;3.92;;;;;;;6.46;100.00;98546.72;4969084;28;20029;-68
2023/03/10 05:04:19;;;;;;;10.50;3.50;;;;;;;6.51;100.00;98546.53;4957486;28;20105;-68
2023/03/10 05:06:49;;;;;;;8.35;3.38;;;;;;;6.51;100.00;98541.28;4975498;28;20059;-68
2023/03/10 05:09:21;;;;;;;18.45;3.85;;;;;;;6.62;100.00;98553.03;5017922;28;20383;-68
2023/03/10 05:11:47;;;;;;;9.00;3.13;;;;;;;6.65;100.00;98546.78;4978129;28;20085;-68
2023/03/10 05:14:13;;;;;;;5.82;2.80;;;;;;;6.67;100.00;98548.44;4989838;28;20095;-68
2023/03/10 05:16:39;;;;;;;13.07;3.92;;;;;;;6.74;100.00;98549.03;4987640;28;20042;-69
2023/03/10 05:19:06;;;;;;;19.27;4.32;;;;;;;6.73;100.00;98546.50;4971362;28;20030;-68
2023/03/10 05:21:32;;;;;;;10.25;3.08;;;;;;;6.76;100.00;98544.56;4975594;28;20409;-68
2023/03/10 05:23:58;;;;;;;18.10;3.40;;;;;;;6.81;100.00;98547.00;4979937;28;20126;-70
2023/03/10 05:26:24;;;;;;;14.43;3.65;;;;;;;6.94;100.00;98544.69;4987301;28;20141;-68
2023/03/10 05:28:50;;;;;;;14.15;3.17;;;;;;;6.99;100.00;98542.72;4981422;28;20455;-68
2023/03/10 05:31:24;;;;;;;;;;;;;;;7.05;100.00;98547.72;4989755;28;20043;-68
2023/03/10 05:33:53;;;;;;;10.10;3.28;;;;;;;7.10;100.00;98543.09;5016214;28;19989;-69
2023/03/10 05:36:20;;;;;;;13.25;3.85;;;;;;;7.14;100.00;98554.34;4994487;28;20132;-68
2023/03/10 05:38:47;;;;;;;15.90;3.55;;;;;;;7.13;100.00;98550.00;4994789;28;20037;-68
2023/03/10 05:41:14;;;;;;;13.20;3.50;;;;;;;7.15;100.00;98553.44;4993762;28;20022;-68
2023/03/10 05:43:42;;;;;;;14.10;3.25;;;;;;;7.16;100.00;98552.50;4994003;28;20050;-68
2023/03/10 05:46:10;;;;;;;10.65;3.20;;;;;;;7.16;100.00;98557.75;4994317;28;20072;-69
2023/03/10 05:48:42;;;;;;;13.43;3.13;;;;;;;7.16;100.00;98557.75;4964720;28;20039;-68
2023/03/10 05:51:11;;;;;;;13.30;3.60;;;;;;;7.17;100.00;98562.09;4966627;28;20026;-68
2023/03/10 05:53:39;;;;;;;15.82;3.38;;;;;;;7.17;100.00;98562.09;4994291;28;20075;-68
2023/03/10 05:56:10;;;;;;;;;;;;;;;7.26;100.00;98561.69;4990367;28;20486;-68
2023/03/10 05:58:37;;;;;;;12.95;3.38;;;;;;;7.26;100.00;98548.53;4987394;28;19941;-68
2023/03/10 06:01:04;;;;;;;12.02;3.50;;;;;;;7.25;100.00;98547.69;4990873;28;20034;-68
2023/03/10 06:03:29;;;;;;;14.10;3.08;;;;;;;7.25;100.00;98546.81;4975729;28;20035;-68
2023/03/10 06:05:56;;;;;;;14.63;3.85;;;;;;;7.24;100.00;98547.72;4988934;28;20386;-68
2023/03/10 06:08:22;;;;;;;15.82;3.35;;;;;;;7.25;100.00;98560.84;4986274;28;20123;-68
2023/03/10 06:10:48;;;;;;;15.05;3.30;;;;;;;7.28;100.00;98555.44;4990406;28;20122;-68
2023/03/10 06:13:13;;;;;;;15.40;3.83;;;;;;;7.28;100.00;98558.06;4989754;28;20493;-68
2023/03/10 06:15:39;;;;;;;10.88;3.10;;;;;;;7.30;100.00;98563.28;4988593;28;20065;-68
2023/03/10 06:18:04;;;;;;;18.25;3.47;;;;;;;7.33;100.00;98563.97;4980069;28;20173;-68
2023/03/10 06:20:30;;;;;;;16.55;4.20;;;;;;;7.35;100.00;98566.53;4978497;28;20153;-68
2023/03/10 06:22:55;;;;;;;14.65;3.47;;;;;;;7.38;100.00;98566.41;4975581;28;20039;-68
2023/03/10 06:25:21;;;;;;;17.15;3.15;;;;;;;7.38;100.00;98568.19;4978294;28;20042;-68
2023/03/10 06:27:47;;;;;;;14.23;4.85;;;;;;;7.35;100.00;98565.69;4960406;28;20039;-68
2023/03/10 06:30:13;;;;;;;13.32;6.38;;;;;;;7.25;100.00;98571.38;4980007;28;20023;-68
2023/03/10 06:32:39;;;;;;;11.23;6.45;;;;;;;7.18;100.00;98569.09;4975497;28;20066;-68
2023/03/10 06:35:05;;;;;;;9.85;6.20;;;;;;;7.11;100.00;98577.22;4975947;28;20485;-68
2023/03/10 06:37:31;;;;;;;11.77;6.72;;;;;;;7.04;100.00;98581.06;4974809;28;20038;-68
2023/03/10 06:39:56;;;;;;;9.90;7.03;;;;;;;6.96;100.00;98575.28;4973749;28;20023;-68
2023/03/10 06:42:22;;;;;;;10.50;7.25;;;;;;;6.92;100.00;98578.94;4974561;28;20359;-68
2023/03/10 06:44:48;;;;;;;11.15;7.13;;;;;;;6.86;100.00;98581.84;4975105;28;20121;-69
2023/03/10 06:47:13;;;;;;;9.93;7.07;;;;;;;6.81;100.00;98586.47;4962668;28;20148;-69
2023/03/10 06:49:39;;;;;;;11.85;6.97;;;;;;;6.77;100.00;98577.81;4975061;28;20034;-69
2023/03/10 06:52:05;;;;;;;12.05;7.30;;;;;;;6.73;100.00;98586.78;4973989;28;20041;-69
2023/03/10 06:54:30;;;;;;;11.85;6.43;;;;;;;6.76;100.00;98591.06;4974660;28;20018;-69
2023/03/10 06:56:56;;;;;;;11.07;6.03;;;;;;;6.76;100.00;98588.44;4979380;28;20043;-69
2023/03/10 06:59:21;;;;;;;11.93;5.80;;;;;;;6.76;100.00;98580.53;4980093;28;20035;-70
2023/03/10 07:01:47;;;;;;;12.40;6.75;;;;;;;6.74;100.00;98585.84;4973514;28;20129;-69
2023/03/10 07:04:13;;;;;;;12.77;7.28;;;;;;;6.73;100.00;98584.16;4982920;28;20072;-69
2023/03/10 07:06:38;;;;;;;11.38;7.15;;;;;;;6.72;100.00;98579.81;4978120;28;20075;-69
2023/03/10 07:09:04;;;;;;;12.07;7.30;;;;;;;6.71;100.00;98578.09;4977468;28;20043;-69
2023/03/10 07:11:30;;;;;;;13.75;7.18;;;;;;;6.71;100.00;98582.53;4974129;28;20480;-69
2023/03/10 07:13:57;;;;;;;12.23;7.32;;;;;;;6.72;100.00;98587.69;4972905;28;20019;-69
2023/03/10 07:16:23;;;;;;;9.57;6.95;;;;;;;6.71;100.00;98591.25;4972997;28;20043;-68
2023/03/10 07:18:48;;;;;;;10.20;6.40;;;;;;;6.70;100.00;98592.19;4973878;28;20027;-69
2023/03/10 07:21:17;;;;;;;12.23;7.00;;;;;;;6.72;100.00;98595.59;4973566;28;20494;-69
2023/03/10 07:23:43;;;;;;;9.93;4.80;;;;;;;6.70;100.00;98592.19;4974039;28;20034;-69
2023/03/10 07:26:12;;;;;;;8.65;4.70;;;;;;;6.74;100.00;98599.00;4973933;28;20153;-69
2023/03/10 07:28:37;;;;;;;8.23;3.85;;;;;;;6.84;100.00;98599.47;4979385;28;20058;-68
2023/03/10 07:31:04;;;;;;;7.65;3.50;;;;;;;6.90;100.00;98601.88;4965134;28;20450;-69
2023/03/10 07:33:30;;;;;;;9.02;4.55;;;;;;;6.94;100.00;98597.31;4992686;28;20467;-69
2023/03/10 07:35:55;;;;;;;7.63;4.57;;;;;;;6.94;100.00;98597.31;4975869;28;20033;-77
2023/03/10 07:38:21;;;;;;;8.27;4.32;;;;;;;6.95;100.00;98596.38;4993442;28;20388;-77
2023/03/10 07:40:46;;;;;;;8.82;4.72;;;;;;;6.96;100.00;98596.31;4983159;28;20120;-77
2023/03/10 07:43:11;;;;;;;9.73;6.30;;;;;;;6.99;100.00;98606.72;4972397;28;20423;-77
2023/03/10 07:45:37;;;;;;;8.50;6.03;;;;;;;7.01;100.00;98609.28;4976781;28;20207;-77
2023/03/10 07:48:03;;;;;;;12.82;7.22;;;;;;;7.02;100.00;98611.00;4988433;28;20046;-77
2023/03/10 07:50:29;;;;;;;12.07;7.68;;;;;;;7.04;100.00;98607.38;4972269;28;20118;-77
2023/03/10 07:52:55;;;;;;;12.82;8.90;;;;;;;7.07;100.00;98612.53;4986102;28;20042;-77
2023/03/10 07:55:21;;;;;;;13.15;9.35;;;;;;;7.09;100.00;98612.44;4963716;28;20069;-77
2023/03/10 07:57:46;;;;;;;29.05;10.02;;;;;;;7.13;100.00;98608.75;4985955;28;20031;-77
2023/03/10 08:00:12;;;;;;;17.05;10.05;;;;;;;7.17;100.00;98614.72;4990294;28;20026;-77
2023/03/10 08:02:39;;;;;;;13.77;9.40;;;;;;;7.19;100.00;98605.00;5007748;28;20441;-77
2023/03/10 08:05:05;;;;;;;18.83;8.65;;;;;;;7.25;100.00;98613.50;4982809;28;20070;-77
2023/03/10 08:07:31;;;;;;;14.90;8.30;;;;;;;7.30;100.00;98608.03;4987015;28;20105;-77
2023/03/10 08:09:56;;;;;;;20.00;9.43;;;;;;;7.40;100.00;98611.97;4972618;28;20038;-77
2023/03/10 08:12:23;;;;;;;15.85;8.57;;;;;;;7.49;100.00;98616.81;4986493;28;20036;-76
2023/03/10 08:14:50;;;;;;;12.98;7.50;;;;;;;7.62;100.00;98618.91;4985942;28;20093;-77
2023/03/10 08:17:16;;;;;;;15.48;7.72;;;;;;;7.72;100.00;98607.03;4984782;28;20038;-77
2023/03/10 08:19:41;;;;;;;11.45;5.38;;;;;;;7.83;100.00;98610.00;4992728;28;20076;-77
2023/03/10 08:22:08;;;;;;;15.90;5.13;;;;;;;7.92;100.00;98603.47;4992778;28;20050;-77
2023/03/10 08:24:35;;;;;;;15.23;5.68;;;;;;;8.01;100.00;98610.06;4992541;28;20027;-77
2023/03/10 08:27:01;;;;;;;10.43;4.05;;;;;;;8.08;100.00;98608.84;4982119;28;20081;-77
2023/03/10 08:29:26;;;;;;;14.27;4.57;;;;;;;8.15;100.00;98612.91;4976015;28;20030;-77
2023/03/10 08:31:52;;;;;;;12.93;4.18;;;;;;;8.22;100.00;98608.22;4969176;28;20081;-77
2023/03/10 08:34:17;;;;;;;13.52;3.78;;;;;;;8.28;100.00;98614.00;4989375;28;20033;-77
2023/03/10 08:36:43;;;;;;;15.43;3.67;;;;;;;8.33;100.00;98604.13;4986807;28;20041;-77
2023/03/10 08:39:10;;;;;;;14.73;3.67;;;;;;;8.38;100.00;98609.16;4977353;28;20541;-77
2023/03/10 08:41:41;;;;;;;11.00;3.25;;;;;;;8.44;100.00;98610.69;4988315;28;20049;-77
2023/03/10 08:44:07;;;;;;;14.60;3.53;;;;;;;8.48;100.00;98612.22;4991359;28;20042;-77
2023/03/10 08:46:35;;;;;;;15.20;3.63;;;;;;;8.52;100.00;98608.53;4986935;28;20110;-78
2023/03/10 08:49:00;;;;;;;12.90;3.80;;;;;;;8.54;100.00;98611.94;4973597;28;20114;-77
2023/03/10 08:51:27;;;;;;;14.75;3.20;;;;;;;8.61;100.00;98616.00;4988827;28;20486;-77
2023/03/10 08:53:53;;;;;;;13.77;3.40;;;;;;;8.65;100.00;98606.13;4992108;28;20037;-77
2023/03/10 08:56:21;;;;;;;16.95;3.40;;;;;;;8.71;100.00;98614.59;4987716;28;20064;-77
2023/03/10 08:58:47;;;;;;;20.10;3.58;;;;;;;8.74;100.00;98606.53;4971788;28;20034;-78
2023/03/10 09:01:15;;;;;;;16.20;3.38;;;;;;;8.82;100.00;98614.06;4983471;28;20053;-77
2023/03/10 09:03:42;;;;;;;12.75;2.97;;;;;;;8.87;100.00;98606.75;4992223;28;20041;-77
2023/03/10 09:06:08;;;;;;;16.08;3.55;;;;;;;8.90;100.00;98605.75;4988225;28;20019;-77
2023/03/10 09:08:34;;;;;;;13.38;2.97;;;;;;;8.89;100.00;98609.34;4982772;28;20101;-77
2023/03/10 09:11:00;;;;;;;11.02;2.90;;;;;;;8.90;100.00;98603.09;4990214;28;20089;-77
2023/03/10 09:13:26;;;;;;;12.40;3.00;;;;;;;8.86;100.00;98602.44;4972788;28;20038;-77
2023/03/10 09:15:51;;;;;;;16.23;3.35;;;;;;;8.81;100.00;98589.47;4978054;28;20072;-77
2023/03/10 09:18:17;;;;;;;16.10;3.42;;;;;;;8.80;100.00;98600.97;4983863;28;20049;-77
2023/03/10 09:20:44;;;;;;;14.20;2.88;;;;;;;8.78;100.00;98601.97;4975154;28;20034;-77
2023/03/10 09:23:11;;;;;;;16.00;3.25;;;;;;;8.77;100.00;98601.09;4977821;28;20133;-77
2023/03/10 09:25:39;;;;;;;10.93;3.10;;;;;;;8.79;100.00;98607.16;4974463;28;20103;-77
2023/03/10 09:28:06;;;;;;;11.77;3.10;;;;;;;8.77;100.00;98611.66;4973806;28;20097;-77
2023/03/10 09:30:36;;;;;;;11.63;3.65;;;;;;;8.73;100.00;98599.56;4982125;28;20030;-77
2023/03/10 09:33:12;;;;;;;10.95;2.83;;;;;;;8.76;100.00;98607.31;4981959;28;20077;-77
2023/03/10 09:35:37;;;;;;;13.13;2.80;;;;;;;8.75;100.00;98594.19;4977092;28;20055;-77
2023/03/10 09:38:03;;;;;;;13.98;3.30;;;;;;;8.83;100.00;98594.66;4980706;28;20065;-73
2023/03/10 09:40:31;;;;;;;14.80;3.30;;;;;;;8.85;100.00;98595.41;4991568;28;20081;-77
2023/03/10 09:43:01;;;;;;;15.88;3.00;;;;;;;8.88;100.00;98594.41;4987236;28;20033;-78
2023/03/10 09:45:45;;;;;;;18.40;3.10;;;;;;;8.91;100.00;98594.28;4986266;28;20118;-77
2023/03/10 09:48:52;;;;;;;12.18;2.83;;;;;;;8.93;100.00;98608.25;4985131;28;20042;-77
2023/03/10 09:51:23;;;;;;;14.43;2.95;;;;;;;8.94;100.00;98610.81;4984121;28;20393;-78
2023/03/10 09:54:05;;;;;;;12.77;3.22;;;;;;;8.98;100.00;98607.09;4979012;28;20308;-77
2023/03/10 09:56:34;;;;;;;11.10;3.10;;;;;;;9.03;100.00;98606.84;4972364;28;20043;-77
2023/03/10 09:59:21;;;;;;;12.20;3.17;;;;;;;9.08;100.00;98599.53;4972649;28;20027;-77
2023/03/10 10:01:48;;;;;;;15.10;3.30;;;;;;;9.15;100.00;98610.63;4982641;28;20114;-77
2023/03/10 10:04:19;;;;;;;15.20;3.28;;;;;;;9.20;100.00;98617.41;4974726;28;20046;-77
2023/03/10 10:06:46;;;;;;;9.10;2.38;;;;;;;9.28;100.00;98618.78;4990464;28;20079;-76
2023/03/10 10:09:42;;;;;;;13.30;3.30;;;;;;;9.30;100.00;98624.81;4989336;28;20034;-76
2023/03/10 10:12:13;;;;;;;9.00;2.17;;;;;;;9.30;100.00;98632.75;4982424;28;20040;-77
2023/03/10 10:14:40;;;;;;;9.23;2.20;;;;;;;9.32;100.00;98629.13;4986542;28;20054;-77
2023/03/10 10:17:14;;;;;;;10.68;2.30;;;;;;;9.31;100.00;98629.19;4995334;28;20094;-77
2023/03/10 10:19:40;;;;;;;10.32;2.35;;;;;;;9.24;100.00;98629.50;4991995;28;20030;-76
2023/03/10 10:22:26;;;;;;;8.77;2.30;;;;;;;9.26;100.00;98626.78;4983670;28;20026;-77
2023/03/10 10:25:07;;;;;;;6.80;2.30;;;;;;;9.32;100.00;98633.53;4995084;28;20129;-77
2023/03/10 10:27:32;;;;;;;11.60;2.60;;;;;;;9.26;100.00;98638.19;4985028;28;20298;-77
2023/03/10 10:29:58;;;;;;;8.98;2.60;;;;;;;9.27;100.00;98633.75;4987949;28;20019;-77
2023/03/10 10:32:24;;;;;;;11.23;2.42;;;;;;;9.26;100.00;98635.56;4976402;28;20058;-77
2023/03/10 10:34:50;;;;;;;16.35;2.53;;;;;;;9.27;100.00;98636.41;4978209;28;20426;-76
2023/03/10 10:37:30;;;;;;;9.50;2.20;;;;;;;9.26;100.00;98629.41;4986863;28;20114;-77
2023/03/10 10:39:58;;;;;;;10.68;2.55;;;;;;;9.23;100.00;98634.88;5006426;28;20034;-77
2023/03/10 10:42:30;;;;;;;9.35;2.95;;;;;;;9.23;100.00;98633.06;4994818;28;20022;-77
2023/03/10 10:45:21;;;;;;;11.15;2.40;;;;;;;9.23;100.00;98635.72;4994631;28;20049;-78
2023/03/10 10:47:49;;;;;;;8.25;2.13;;;;;;;9.16;100.00;98636.97;4985887;28;20146;-77
2023/03/10 10:50:24;;;;;;;10.05;2.03;;;;;;;9.09;100.00;98635.56;4981194;28;20028;-77
2023/03/10 10:53:09;;;;;;;10.95;2.30;;;;;;;9.02;100.00;98626.25;4993328;28;20506;-78
2023/03/10 10:55:35;;;;;;;10.10;2.35;;;;;;;9.03;100.00;98622.69;4979542;28;20389;-78
2023/03/10 10:58:05;;;;;;;10.25;2.70;;;;;;;8.99;100.00;98629.91;4973935;28;20041;-78
2023/03/10 11:00:37;;;;;;;7.38;2.20;;;;;;;8.96;100.00;98616.88;4977409;28;20030;-79
2023/03/10 11:03:35;;;;;;;10.85;2.25;;;;;;;8.95;100.00;98627.47;4990614;28;20382;-78
2023/03/10 11:06:12;;;;;;;10.13;2.28;;;;;;;8.98;100.00;98619.44;4992824;28;20046;-77
2023/03/10 11:08:44;;;;;;;8.48;2.55;;;;;;;9.02;100.00;98618.31;5015454;28;20442;-78
2023/03/10 11:11:19;;;;;;;11.95;2.63;;;;;;;9.09;100.00;98614.44;4976664;28;20038;-78
2023/03/10 11:14:00;;;;;;;15.18;3.10;;;;;;;9.16;100.00;98621.13;4989633;28;20402;-78
2023/03/10 11:16:46;;;;;;;;;;;;;;;9.23;100.00;98626.94;4991858;28;20034;-78
2023/03/10 11:19:25;;;;;;;7.97;2.42;;;;;;;9.20;100.00;98616.56;4988553;28;20004;-78
2023/03/10 11:21:56;;;;;;;6.22;2.30;;;;;;;9.17;100.00;98611.41;4994126;28;20038;-79
2023/03/10 11:24:33;;;;;;;9.43;2.60;;;;;;;9.20;100.00;98606.00;4991750;28;20030;-79
2023/03/10 11:27:01;;;;;;;9.23;3.00;;;;;;;9.16;100.00;98605.28;4991566;28;20697;-79
2023/03/10 11:30:19;;;;;;;6.30;2.55;;;;;;;9.20;100.00;98606.84;4974438;28;20026;-78
2023/03/10 11:33:09;;;;;;;10.73;3.08;;;;;;;9.16;100.00;98594.72;4962973;28;20058;-79
2023/03/10 11:35:48;;;;;;;13.60;3.40;;;;;;;9.15;100.00;98593.03;4982570;28;20499;-79